Airfield :
LOGIN :

Register | Disclaimer

   EN    FR    IT 

 










Legend :    VFR   Marginal VFR   IFR   Intensive IFR   Very Intensive IFR
Visi :
Ceiling :
>= 8 km
>= 3000ft
5 to 8 km
1000 to 3000 ft
1500m to 5 km
500 to 1000 ft
800 to 1500m
200 to 500 ft
< 800m
< 200 ft
Symbols :   Thunderstorms  Fog  Heavy snow  Heavy precipitations  Wind > 20 kt
SIGMETs :     Misc.  Thunderstorms  Icing  Turbulence  Mountain Waves  Volcanic Ashes







- Airport Elevation : 1504 ft
- IATA code : PNA


LEPP - Noain Pamplona

CURRENT METAR :
  • 141830Z VRB02KT 9999 FEW006 BKN014 09/08 Q1012

EXPIRED METARs :
  • 141800Z 13003KT 110V170 9999 FEW006 BKN014 09/09 Q1012
  • 141730Z 00000KT 9999 FEW006 BKN012 09/09 Q1013
  • 141700Z 00000KT 9999 SCT010 BKN028 09/09 Q1013
  • 141630Z VRB01KT 9999 FEW010 BKN028 09/09 Q1013
  • 141600Z VRB01KT 9999 FEW010 BKN032 10/09 Q1013

TAF TAF LEPP
Valid from the 14 at 15:00 until the 15 at 15:00 UTC


141400Z 1415/1515 VRB04KT 9999 FEW014 BKN030 TX10/1514Z TN02/1505Z
PROB30
TEMPO 1415/1503 RA BKN014
TEMPO 1503/1515 32010KT 3000 RA BKN014
PROB40
TEMPO 1510/1515 32015G25KT SHRA SCT030TCU
No reported NOTAMs for that airfield.



MET'MAP, your aeronautical weather chart ! - Copyright ORBIFLY December 2007 - Disclaimer

ORBIFLY MET'MAP TEAM :

Programming & Development : Alexandra Zaïnal
Concept & Development : Baudouin d'Aumeries
Co-Development & Prog : Marc-Olivier Méhu
Technical & hardware support : Manuel Goepfert

Contact : metmap@orbifly.com




SOURCES & CREDITS :

   NOAA